createdAt,value
2022-11-13T00:00:22.681Z,52.10
2022-11-13T00:03:23.007Z,50.60
2022-11-13T00:06:10.904Z,51.40
2022-11-13T00:08:57.014Z,48.10
2022-11-13T00:11:43.550Z,50.60
2022-11-13T00:14:29.894Z,48.40
2022-11-13T00:17:15.939Z,52.30
2022-11-13T00:20:02.585Z,50.90
2022-11-13T00:22:48.757Z,51.90
2022-11-13T00:25:35.542Z,50.30
2022-11-13T00:28:22.022Z,49.40
2022-11-13T00:31:09.498Z,51.90
2022-11-13T00:37:03.722Z,53.70
2022-11-13T00:39:50.302Z,52.60
2022-11-13T00:42:36.710Z,50.20
2022-11-13T00:45:23.133Z,50.30
2022-11-13T00:48:09.620Z,53.10
2022-11-13T00:50:56.483Z,55.00
2022-11-13T00:53:42.803Z,50.30
2022-11-13T00:56:29.288Z,53.20
2022-11-13T00:59:15.689Z,52.50
2022-11-13T01:02:02.189Z,51.70
2022-11-13T01:04:48.552Z,57.20
2022-11-13T01:07:37.052Z,52.80
2022-11-13T01:10:23.935Z,48.90
2022-11-13T01:13:10.293Z,49.40
2022-11-13T01:15:56.433Z,50.50
2022-11-13T01:18:43.212Z,51.40
2022-11-13T01:21:29.381Z,53.10
2022-11-13T01:24:15.926Z,50.80
2022-11-13T01:27:02.211Z,47.90
2022-11-13T01:29:48.827Z,46.60
2022-11-13T01:32:35.417Z,47.60
2022-11-13T01:35:21.742Z,49.40
2022-11-13T01:38:08.030Z,54.00
2022-11-13T01:40:54.530Z,54.40
2022-11-13T01:43:40.955Z,49.40
2022-11-13T01:46:30.589Z,46.40
2022-11-13T01:49:40.626Z,42.90
2022-11-13T01:52:30.999Z,43.10
2022-11-13T01:55:19.607Z,46.80
2022-11-13T01:58:08.778Z,40.10
2022-11-13T02:00:55.099Z,41.80
2022-11-13T02:03:41.606Z,38.80
2022-11-13T02:06:34.313Z,44.30
2022-11-13T02:09:27.658Z,46.30
2022-11-13T02:12:18.853Z,46.00
2022-11-13T02:15:07.463Z,46.00
2022-11-13T02:17:57.636Z,43.10
2022-11-13T02:21:10.175Z,44.40
2022-11-13T02:24:14.268Z,46.60
2022-11-13T02:27:05.756Z,45.50
2022-11-13T02:29:52.084Z,49.10
2022-11-13T02:32:47.049Z,41.90
2022-11-13T02:35:36.822Z,40.30
2022-11-13T02:38:23.291Z,41.50
2022-11-13T02:41:09.771Z,42.60
2022-11-13T02:43:56.215Z,43.60
2022-11-13T02:46:42.793Z,43.70
2022-11-13T02:49:29.147Z,42.10
2022-11-13T02:52:15.641Z,41.50
2022-11-13T02:55:02.297Z,39.40
2022-11-13T02:57:48.748Z,40.40
2022-11-13T03:00:34.991Z,45.00
2022-11-13T03:03:41.135Z,43.90
2022-11-13T03:06:27.258Z,42.80
2022-11-13T03:09:13.912Z,36.10
2022-11-13T03:12:00.133Z,37.90
2022-11-13T03:14:46.233Z,39.10
2022-11-13T03:17:33.420Z,40.80
2022-11-13T03:20:19.617Z,37.20
2022-11-13T03:23:06.694Z,42.50
2022-11-13T03:25:53.089Z,39.50
2022-11-13T03:28:39.580Z,41.10
2022-11-13T03:31:26.126Z,44.10
2022-11-13T03:34:12.811Z,45.60
2022-11-13T03:36:59.401Z,42.40
2022-11-13T03:39:45.961Z,45.10
2022-11-13T03:42:32.561Z,45.40
2022-11-13T03:45:18.983Z,47.40
2022-11-13T03:48:05.814Z,48.00
2022-11-13T03:50:55.197Z,46.80
2022-11-13T03:53:41.639Z,48.80
2022-11-13T03:56:28.520Z,48.50
2022-11-13T03:59:14.772Z,50.10
2022-11-13T04:02:01.302Z,48.90
2022-11-13T04:04:47.963Z,50.00
2022-11-13T04:07:34.556Z,48.20
2022-11-13T04:10:21.613Z,45.90
2022-11-13T04:13:08.543Z,57.60
2022-11-13T04:15:54.804Z,55.50
2022-11-13T04:18:41.360Z,51.80
2022-11-13T04:21:27.997Z,50.30
2022-11-13T04:24:14.232Z,46.10
2022-11-13T04:27:00.625Z,45.20
2022-11-13T04:29:47.231Z,44.60
2022-11-13T04:32:33.715Z,44.80
2022-11-13T04:35:19.958Z,43.50
2022-11-13T04:38:06.136Z,44.30
2022-11-13T04:41:12.627Z,43.20
2022-11-13T04:43:58.889Z,43.90
2022-11-13T04:46:45.167Z,46.20
2022-11-13T04:49:31.457Z,48.50
2022-11-13T04:52:17.818Z,41.70
2022-11-13T04:55:05.169Z,48.90
2022-11-13T04:57:55.653Z,49.70
2022-11-13T05:00:41.979Z,53.70
2022-11-13T05:03:28.448Z,54.60
2022-11-13T05:06:14.945Z,53.00
2022-11-13T05:09:01.754Z,51.50
2022-11-13T05:11:48.184Z,50.10
2022-11-13T05:14:38.897Z,52.40
2022-11-13T05:17:25.058Z,54.70
2022-11-13T05:20:11.970Z,54.60
2022-11-13T05:22:58.163Z,50.70
2022-11-13T05:25:44.670Z,51.70
2022-11-13T05:28:31.491Z,50.70
2022-11-13T05:31:18.343Z,48.00
2022-11-13T05:34:06.065Z,48.10
2022-11-13T05:36:54.161Z,52.20
2022-11-13T05:39:40.466Z,48.50
2022-11-13T05:42:26.994Z,49.80
2022-11-13T05:45:13.440Z,50.80
2022-11-13T05:47:59.771Z,50.80
2022-11-13T05:50:46.327Z,51.70
2022-11-13T05:53:36.351Z,53.90
2022-11-13T05:56:23.970Z,53.80
2022-11-13T05:59:10.385Z,51.90
2022-11-13T06:01:56.957Z,51.90
2022-11-13T06:04:43.529Z,50.90
2022-11-13T06:07:29.748Z,59.00
2022-11-13T06:10:16.449Z,71.20
2022-11-13T06:13:02.569Z,61.10
2022-11-13T06:15:48.993Z,53.00
2022-11-13T06:18:36.118Z,52.80
2022-11-13T06:21:24.463Z,55.40
2022-11-13T06:24:12.857Z,57.60
2022-11-13T06:26:59.248Z,53.40
2022-11-13T06:29:47.063Z,52.30
2022-11-13T06:32:33.217Z,51.00
2022-11-13T06:35:19.628Z,50.50
2022-11-13T06:38:06.141Z,55.20
2022-11-13T06:40:52.548Z,60.20
2022-11-13T06:43:39.079Z,59.80
2022-11-13T06:46:28.168Z,53.30
2022-11-13T06:49:14.484Z,49.80
2022-11-13T06:52:01.029Z,51.70
2022-11-13T06:54:47.645Z,54.30
2022-11-13T06:57:34.011Z,54.90
2022-11-13T07:00:20.591Z,56.70
2022-11-13T07:03:07.258Z,52.60
2022-11-13T07:05:53.795Z,52.60
2022-11-13T07:08:43.966Z,54.80
2022-11-13T07:11:30.686Z,55.20
2022-11-13T07:14:17.193Z,54.60
2022-11-13T07:17:09.550Z,57.10
2022-11-13T07:19:56.619Z,57.10
2022-11-13T07:22:43.308Z,51.10
2022-11-13T07:25:31.169Z,53.60
2022-11-13T07:28:17.364Z,50.50
2022-11-13T07:31:03.909Z,51.40
2022-11-13T07:33:52.046Z,54.20
2022-11-13T07:36:38.298Z,56.00
2022-11-13T07:39:24.753Z,54.00
2022-11-13T07:42:11.307Z,51.90
2022-11-13T07:44:57.512Z,49.10
2022-11-13T07:47:43.760Z,52.10
2022-11-13T07:50:33.648Z,52.60
2022-11-13T07:53:21.417Z,57.20
2022-11-13T07:56:07.795Z,55.10
2022-11-13T07:58:54.532Z,55.40
2022-11-13T08:01:40.844Z,55.80
2022-11-13T08:04:28.478Z,55.10
2022-11-13T08:07:15.090Z,59.70
2022-11-13T08:10:01.577Z,59.70
2022-11-13T08:12:48.159Z,55.70
2022-11-13T08:15:35.072Z,58.00
2022-11-13T08:18:21.656Z,55.60
2022-11-13T08:21:13.474Z,57.50
2022-11-13T08:24:01.061Z,52.50
2022-11-13T08:26:47.059Z,54.60
2022-11-13T08:29:33.670Z,56.00
2022-11-13T08:32:20.712Z,57.90
2022-11-13T08:35:07.210Z,61.80
2022-11-13T08:37:53.291Z,59.10
2022-11-13T08:40:39.629Z,58.10
2022-11-13T08:43:26.335Z,58.80
2022-11-13T08:46:13.005Z,58.00
2022-11-13T08:48:59.221Z,58.80
2022-11-13T08:51:45.736Z,61.50
2022-11-13T08:54:32.276Z,65.30
2022-11-13T08:57:18.473Z,56.30
2022-11-13T09:00:06.009Z,64.70
2022-11-13T09:02:56.731Z,67.80
2022-11-13T09:05:43.227Z,64.70
2022-11-13T09:08:31.189Z,64.50
2022-11-13T09:11:17.664Z,66.60
2022-11-13T09:14:03.972Z,64.10
2022-11-13T09:16:50.512Z,62.90
2022-11-13T09:19:36.976Z,60.10
2022-11-13T09:22:23.174Z,62.20
2022-11-13T09:25:09.857Z,63.90
2022-11-13T09:27:57.827Z,67.20
2022-11-13T09:30:44.113Z,58.40
2022-11-13T09:33:30.628Z,60.00
2022-11-13T09:36:17.554Z,57.30
2022-11-13T09:39:05.091Z,59.80
2022-11-13T09:41:58.645Z,65.60
2022-11-13T09:44:53.065Z,61.90
2022-11-13T09:47:44.231Z,62.80
2022-11-13T09:50:32.450Z,60.10
2022-11-13T09:53:18.740Z,60.10
2022-11-13T09:56:23.808Z,63.40
2022-11-13T09:59:39.124Z,68.10
2022-11-13T10:02:29.907Z,64.40
2022-11-13T10:05:34.905Z,60.50
2022-11-13T10:08:36.185Z,61.40
2022-11-13T10:11:44.717Z,57.60
2022-11-13T10:14:46.104Z,63.90
2022-11-13T10:17:44.206Z,59.70
2022-11-13T10:20:58.121Z,54.10
2022-11-13T10:23:50.439Z,51.50
2022-11-13T10:26:37.043Z,53.20
2022-11-13T10:29:23.416Z,58.00
2022-11-13T10:32:53.132Z,56.00
2022-11-13T10:35:41.763Z,51.10
2022-11-13T10:38:32.366Z,51.30
2022-11-13T10:41:21.928Z,53.10
2022-11-13T10:44:30.603Z,56.50
2022-11-13T10:47:36.216Z,59.30
2022-11-13T10:50:29.469Z,60.70
2022-11-13T10:53:18.408Z,57.80
2022-11-13T10:56:27.866Z,52.90
2022-11-13T10:59:19.532Z,54.00
2022-11-13T11:02:11.953Z,54.50
2022-11-13T11:05:18.507Z,53.40
2022-11-13T11:08:10.371Z,52.10
2022-11-13T11:11:21.242Z,52.90
2022-11-13T11:14:28.864Z,55.80
2022-11-13T11:17:19.500Z,57.50
2022-11-13T11:20:47.913Z,64.10
2022-11-13T11:24:06.863Z,68.50
2022-11-13T11:27:23.262Z,70.40
2022-11-13T11:30:22.815Z,55.70
2022-11-13T11:33:15.388Z,50.60
2022-11-13T11:36:34.858Z,53.80
2022-11-13T11:39:41.105Z,55.60
2022-11-13T11:42:39.095Z,54.90
2022-11-13T11:45:30.873Z,55.30
2022-11-13T11:48:20.486Z,52.80
2022-11-13T11:51:13.155Z,53.80
2022-11-13T11:54:02.393Z,57.50
2022-11-13T11:56:52.647Z,52.30
2022-11-13T11:59:44.855Z,51.90
2022-11-13T12:02:43.394Z,49.40
2022-11-13T12:05:41.419Z,50.20
2022-11-13T12:08:40.486Z,47.70
2022-11-13T12:11:33.992Z,45.10
2022-11-13T12:14:44.561Z,47.00
2022-11-13T12:17:45.478Z,45.90
2022-11-13T12:20:37.429Z,46.70
2022-11-13T12:23:37.005Z,43.40
2022-11-13T12:26:29.078Z,43.80
2022-11-13T12:29:22.858Z,44.40
2022-11-13T12:32:23.333Z,43.50
2022-11-13T12:35:23.690Z,41.70
2022-11-13T12:38:31.655Z,42.20
2022-11-13T12:41:46.617Z,40.90
2022-11-13T12:44:45.092Z,46.20
2022-11-13T12:47:33.733Z,42.50
2022-11-13T12:50:32.404Z,40.30
2022-11-13T12:53:29.398Z,41.40
2022-11-13T12:56:32.117Z,42.20
2022-11-13T12:59:34.039Z,39.20
2022-11-13T13:02:43.970Z,37.70
2022-11-13T13:05:51.685Z,38.70
2022-11-13T13:09:03.676Z,38.00
2022-11-13T13:12:21.012Z,39.80
2022-11-13T13:15:34.873Z,40.00
2022-11-13T13:18:21.511Z,41.10
2022-11-13T13:21:14.998Z,38.10
2022-11-13T13:24:26.875Z,40.10
2022-11-13T13:27:26.223Z,37.70
2022-11-13T13:30:26.318Z,43.50
2022-11-13T13:33:22.270Z,38.70
2022-11-13T13:36:33.307Z,39.70
2022-11-13T13:39:45.045Z,41.90
2022-11-13T13:42:34.115Z,45.00
2022-11-13T13:45:41.456Z,45.90
2022-11-13T13:48:32.294Z,47.10
2022-11-13T13:51:29.659Z,47.60
2022-11-13T13:54:21.142Z,47.90
2022-11-13T13:57:13.106Z,48.20
2022-11-13T14:00:00.246Z,50.00
2022-11-13T14:02:48.818Z,52.70
2022-11-13T14:05:36.442Z,47.40
2022-11-13T14:08:25.606Z,48.50
2022-11-13T14:11:32.623Z,51.30
2022-11-13T14:14:22.269Z,50.70
2022-11-13T14:17:10.968Z,50.50
2022-11-13T14:20:01.214Z,52.20
2022-11-13T14:22:55.289Z,51.40
2022-11-13T14:25:45.085Z,50.70
2022-11-13T14:28:34.487Z,49.10
2022-11-13T14:31:27.421Z,49.80
2022-11-13T14:34:20.278Z,52.40
2022-11-13T14:37:27.541Z,51.00
2022-11-13T14:40:25.239Z,53.00
2022-11-13T14:43:29.176Z,55.60
2022-11-13T14:46:30.728Z,54.70
2022-11-13T14:49:37.668Z,58.90
2022-11-13T14:52:28.459Z,55.00
2022-11-13T14:55:27.942Z,61.50
2022-11-13T14:58:14.912Z,57.90
2022-11-13T15:01:24.969Z,61.10
2022-11-13T15:04:11.425Z,64.60
2022-11-13T15:07:02.027Z,65.80
2022-11-13T15:09:50.171Z,61.50
2022-11-13T15:12:36.701Z,63.30
2022-11-13T15:15:28.129Z,62.90
2022-11-13T15:18:18.372Z,66.80
2022-11-13T15:21:05.222Z,68.30
2022-11-13T15:23:51.608Z,70.10
2022-11-13T15:26:38.819Z,69.10
2022-11-13T15:29:25.562Z,62.50
2022-11-13T15:32:13.404Z,57.80
2022-11-13T15:34:59.451Z,60.70
2022-11-13T15:37:46.302Z,64.70
2022-11-13T15:40:32.834Z,65.80
2022-11-13T15:43:22.380Z,66.70
2022-11-13T15:46:14.785Z,61.80
2022-11-13T15:49:01.059Z,60.20
2022-11-13T15:51:47.565Z,55.10
2022-11-13T15:54:37.385Z,60.00
2022-11-13T15:57:29.316Z,57.50
2022-11-13T16:00:18.054Z,56.70
2022-11-13T16:03:04.806Z,58.00
2022-11-13T16:05:51.590Z,58.70
2022-11-13T16:08:38.190Z,58.90
2022-11-13T16:11:24.643Z,61.30
2022-11-13T16:14:11.041Z,62.60
2022-11-13T16:16:58.312Z,61.20
2022-11-13T16:19:44.696Z,60.40
2022-11-13T16:22:30.912Z,62.50
2022-11-13T16:25:19.776Z,62.10
2022-11-13T16:28:14.464Z,60.70
2022-11-13T16:31:00.824Z,58.80
2022-11-13T16:33:47.704Z,56.00
2022-11-13T16:36:34.148Z,60.00
2022-11-13T16:39:20.298Z,61.30
2022-11-13T16:42:06.668Z,60.50
2022-11-13T16:44:53.178Z,61.20
2022-11-13T16:47:39.959Z,70.90
2022-11-13T16:50:30.780Z,62.40
2022-11-13T16:53:17.155Z,63.70
2022-11-13T16:56:11.852Z,64.00
2022-11-13T16:58:59.084Z,55.60
2022-11-13T17:01:45.628Z,60.30
2022-11-13T17:04:31.818Z,55.90
2022-11-13T17:07:18.517Z,53.30
2022-11-13T17:13:12.718Z,58.90
2022-11-13T17:16:01.735Z,55.80
2022-11-13T17:18:52.895Z,55.20
2022-11-13T17:21:43.919Z,58.70
2022-11-13T17:24:30.737Z,57.20
2022-11-13T17:27:17.675Z,58.70
2022-11-13T17:30:04.712Z,61.80
2022-11-13T17:32:51.051Z,58.20
2022-11-13T17:35:37.790Z,55.10
2022-11-13T17:38:24.528Z,56.40
2022-11-13T17:41:15.444Z,59.40
2022-11-13T17:44:02.114Z,61.00
2022-11-13T17:46:48.617Z,61.10
2022-11-13T17:49:35.011Z,54.60
2022-11-13T17:52:21.694Z,55.70
2022-11-13T17:55:10.835Z,57.70
2022-11-13T17:58:01.148Z,55.70
2022-11-13T18:00:47.726Z,61.20
2022-11-13T18:03:34.450Z,67.50
2022-11-13T18:06:21.045Z,63.80
2022-11-13T18:09:07.356Z,68.10
2022-11-13T18:11:53.511Z,65.50
2022-11-13T18:14:39.990Z,64.80
2022-11-13T18:17:26.398Z,68.90
2022-11-13T18:20:12.665Z,68.10
2022-11-13T18:23:00.114Z,63.40
2022-11-13T18:26:12.121Z,65.50
2022-11-13T18:29:02.348Z,66.40
2022-11-13T18:31:54.894Z,67.70
2022-11-13T18:34:42.570Z,68.30
2022-11-13T18:37:31.800Z,64.60
2022-11-13T18:40:33.888Z,64.60
2022-11-13T18:49:42.205Z,71.30
2022-11-13T18:52:28.943Z,74.30
2022-11-13T18:55:15.605Z,70.80
2022-11-13T18:58:02.079Z,73.80
2022-11-13T19:00:48.641Z,69.10
2022-11-13T19:03:35.116Z,69.30
2022-11-13T19:06:23.244Z,67.90
2022-11-13T19:09:15.981Z,69.50
2022-11-13T19:12:02.430Z,71.80
2022-11-13T19:14:48.782Z,74.60
2022-11-13T19:17:35.034Z,65.60
2022-11-13T19:20:21.887Z,61.30
2022-11-13T19:23:09.320Z,61.00
2022-11-13T19:25:56.077Z,63.80
2022-11-13T19:28:42.615Z,66.30
2022-11-13T19:31:28.786Z,61.60
2022-11-13T19:34:15.235Z,63.60
2022-11-13T19:37:01.563Z,63.30
2022-11-13T19:39:48.250Z,64.90
2022-11-13T19:42:39.296Z,64.40
2022-11-13T19:45:27.901Z,67.20
2022-11-13T19:48:17.793Z,64.80
2022-11-13T19:51:09.851Z,63.80
2022-11-13T19:53:58.867Z,61.60
2022-11-13T19:56:45.618Z,60.10
2022-11-13T19:59:32.299Z,59.40
2022-11-13T20:02:18.680Z,61.30
2022-11-13T20:05:05.834Z,57.50
2022-11-13T20:07:52.282Z,59.80
2022-11-13T20:10:41.274Z,57.70
2022-11-13T20:13:27.483Z,57.10
2022-11-13T20:16:15.417Z,57.00
2022-11-13T20:19:01.518Z,53.90
2022-11-13T20:21:47.826Z,57.40
2022-11-13T20:24:34.418Z,59.50
2022-11-13T20:27:20.902Z,57.20
2022-11-13T20:30:08.172Z,55.10
2022-11-13T20:32:54.708Z,56.80
2022-11-13T20:35:41.047Z,59.30
2022-11-13T20:38:28.889Z,58.10
2022-11-13T20:41:15.669Z,62.10
2022-11-13T20:44:03.465Z,62.30
2022-11-13T20:46:50.267Z,61.90
2022-11-13T20:49:36.875Z,55.60
2022-11-13T20:52:23.260Z,56.10
2022-11-13T20:55:09.698Z,55.80
2022-11-13T20:57:56.369Z,56.70
2022-11-13T21:00:44.938Z,62.30
2022-11-13T21:03:31.532Z,56.30
2022-11-13T21:06:22.530Z,50.70
2022-11-13T21:09:09.405Z,53.60
2022-11-13T21:11:55.858Z,54.30
2022-11-13T21:14:41.984Z,57.30
2022-11-13T21:17:28.735Z,57.80
2022-11-13T21:20:15.257Z,58.20
2022-11-13T21:23:02.337Z,58.80
2022-11-13T21:25:58.571Z,58.00
2022-11-13T21:28:45.507Z,58.20
2022-11-13T21:31:31.655Z,60.40
2022-11-13T21:34:18.198Z,59.40
2022-11-13T21:37:04.411Z,62.20
2022-11-13T21:39:50.838Z,58.90
2022-11-13T21:42:37.103Z,56.40
2022-11-13T21:45:23.966Z,55.10
2022-11-13T21:48:10.109Z,51.40
2022-11-13T21:50:58.462Z,55.90
2022-11-13T21:53:45.220Z,60.50
2022-11-13T21:56:33.768Z,59.80
2022-11-13T21:59:20.484Z,60.20
2022-11-13T22:02:10.578Z,61.10
2022-11-13T22:04:56.976Z,60.50
2022-11-13T22:07:44.855Z,59.60
2022-11-13T22:10:31.804Z,55.10
2022-11-13T22:13:18.338Z,58.30
2022-11-13T22:16:09.322Z,52.40
2022-11-13T22:18:58.077Z,55.50
2022-11-13T22:21:45.623Z,54.60
2022-11-13T22:24:31.739Z,55.70
2022-11-13T22:27:18.479Z,55.00
2022-11-13T22:30:05.005Z,53.00
2022-11-13T22:32:51.542Z,54.50
2022-11-13T22:35:37.908Z,55.50
2022-11-13T22:38:24.094Z,55.70
2022-11-13T22:41:18.781Z,55.50
2022-11-13T22:44:12.902Z,58.40
2022-11-13T22:46:58.934Z,55.90
2022-11-13T22:49:45.314Z,57.40
2022-11-13T22:52:31.685Z,58.60
2022-11-13T22:55:18.142Z,60.60
2022-11-13T22:58:04.575Z,58.20
2022-11-13T23:00:51.066Z,55.50
2022-11-13T23:03:39.075Z,57.70
2022-11-13T23:09:13.017Z,59.20
2022-11-13T23:11:59.443Z,57.60
2022-11-13T23:14:46.639Z,61.10
2022-11-13T23:17:32.994Z,58.50
2022-11-13T23:20:19.359Z,56.90
2022-11-13T23:23:05.696Z,57.90
2022-11-13T23:25:52.088Z,56.30
2022-11-13T23:28:39.164Z,58.90
2022-11-13T23:31:25.326Z,58.20
2022-11-13T23:34:11.791Z,59.20
2022-11-13T23:36:58.015Z,57.90
2022-11-13T23:39:44.408Z,58.10
2022-11-13T23:42:53.668Z,55.30
2022-11-13T23:45:37.911Z,59.40
2022-11-13T23:48:24.263Z,59.10
2022-11-13T23:51:10.606Z,53.30
2022-11-13T23:53:56.903Z,55.70
2022-11-13T23:56:42.937Z,54.90
2022-11-13T23:59:29.142Z,58.50
